Time;durP1;ratioP1;P1;durP2;ratioP2;P2;SDS_P1;SDS_P2;PMS_P1;PMS_P2;Temp;Humidity;BMP_temperature;BMP_pressure;BME280_temperature;BME280_humidity;BME280_pressure;Samples;Min_cycle;Max_cycle;Signal;HPM_P1;HPM_P2
2022/04/12 00:01:05;;;;;;;7.18;4.22;;;;;;;18.84;43.01;101218.34;5045996;28;20320;-40
2022/04/12 00:03:32;;;;;;;7.57;4.20;;;;;;;18.83;43.14;101216.66;5044942;28;20048;-39
2022/04/12 00:05:59;;;;;;;6.63;4.43;;;;;;;18.82;43.31;101198.88;5043852;28;20061;-39
2022/04/12 00:08:26;;;;;;;9.60;4.63;;;;;;;18.81;43.12;101191.78;5044839;28;20320;-40
2022/04/12 00:10:53;;;;;;;5.75;4.13;;;;;;;18.80;43.31;101196.31;5044143;28;20062;-40
2022/04/12 00:13:20;;;;;;;6.78;4.28;;;;;;;18.80;42.79;101192.78;5044949;28;20789;-39
2022/04/12 00:15:49;;;;;;;7.13;4.15;;;;;;;18.78;43.13;101203.69;5042320;28;20160;-39
2022/04/12 00:21:16;;;;;;;5.78;3.63;;;;;;;18.76;43.25;101216.41;5019573;28;20047;-39
2022/04/12 00:23:42;;;;;;;6.57;3.85;;;;;;;18.76;43.62;101213.72;5045586;28;20527;-40
2022/04/12 00:26:09;;;;;;;6.10;3.95;;;;;;;18.74;43.12;101213.88;5043408;28;20044;-40
2022/04/12 00:28:36;;;;;;;5.80;3.88;;;;;;;18.74;43.13;101219.25;5045390;28;20128;-40
2022/04/12 00:31:03;;;;;;;6.47;3.60;;;;;;;18.74;43.48;101215.72;5043128;28;20045;-40
2022/04/12 00:33:29;;;;;;;8.20;4.28;;;;;;;18.73;43.66;101220.25;5045491;28;20051;-40
2022/04/12 00:35:58;;;;;;;7.13;3.63;;;;;;;18.72;43.46;101223.91;5043895;28;20049;-40
2022/04/12 00:38:25;;;;;;;5.40;3.47;;;;;;;18.71;43.15;101216.84;5043875;28;20115;-40
2022/04/12 00:40:53;;;;;;;7.05;4.10;;;;;;;18.72;43.46;101223.06;5045269;28;20080;-40
2022/04/12 00:43:25;;;;;;;6.90;3.65;;;;;;;18.71;43.65;101224.06;5043570;28;20071;-40
2022/04/12 00:45:51;;;;;;;7.57;3.80;;;;;;;18.70;42.90;101228.59;5042475;28;20460;-40
2022/04/12 00:48:18;;;;;;;5.85;3.20;;;;;;;18.69;43.42;101226.88;5042130;28;20357;-40
2022/04/12 00:50:46;;;;;;;6.47;3.60;;;;;;;18.70;43.26;101230.44;5041837;28;20053;-40
2022/04/12 00:53:14;;;;;;;6.10;3.90;;;;;;;18.69;43.49;101224.19;5044764;28;20110;-40
2022/04/12 00:55:40;;;;;;;5.45;3.65;;;;;;;18.67;42.78;101219.94;5044255;28;20037;-40
2022/04/12 00:58:08;;;;;;;5.65;3.50;;;;;;;18.68;43.47;101233.22;5048295;28;20048;-40
2022/04/12 01:00:35;;;;;;;5.13;3.22;;;;;;;18.67;43.49;101228.00;5049787;28;20123;-40
2022/04/12 01:03:03;;;;;;;6.55;3.33;;;;;;;18.66;43.31;101223.63;5050915;28;20053;-40
2022/04/12 01:05:30;;;;;;;4.50;3.20;;;;;;;18.65;43.26;101221.94;5046951;28;20394;-40
2022/04/12 01:07:57;;;;;;;5.18;2.65;;;;;;;18.63;43.30;101210.50;5051759;28;20083;-41
2022/04/12 01:10:24;;;;;;;5.40;3.00;;;;;;;18.62;43.46;101215.03;5047736;28;20037;-40
2022/04/12 01:12:53;;;;;;;4.82;3.30;;;;;;;18.62;43.34;101224.94;5048797;28;20049;-40
2022/04/12 01:15:22;;;;;;;7.90;3.50;;;;;;;18.60;43.42;101219.69;5046724;28;20033;-39
2022/04/12 01:17:50;;;;;;;6.05;3.03;;;;;;;18.61;43.70;101218.69;5050139;28;20041;-40
2022/04/12 01:20:19;;;;;;;5.78;3.25;;;;;;;18.61;43.63;101220.53;5049399;28;20053;-39
2022/04/12 01:23:14;;;;;;;4.97;3.05;;;;;;;18.58;43.79;101212.81;5048213;28;20044;-39
2022/04/12 01:25:41;;;;;;;5.05;3.28;;;;;;;18.58;43.77;101210.13;5048549;28;20041;-39
2022/04/12 01:28:10;;;;;;;6.22;3.03;;;;;;;18.56;43.19;101207.56;5049663;28;20049;-39
2022/04/12 01:30:37;;;;;;;4.57;2.97;;;;;;;18.56;43.33;101204.03;5045716;28;20066;-39
2022/04/12 01:33:04;;;;;;;3.33;2.30;;;;;;;18.54;43.43;101204.19;5047540;28;20037;-39
2022/04/12 01:35:32;;;;;;;4.65;2.83;;;;;;;18.55;43.64;101202.34;5045169;28;20037;-39
2022/04/12 01:37:59;;;;;;;4.97;2.70;;;;;;;18.54;43.14;101198.81;5046951;28;20053;-40
2022/04/12 01:40:25;;;;;;;4.22;2.78;;;;;;;18.53;43.29;101196.28;5047579;28;20047;-39
2022/04/12 01:42:52;;;;;;;4.35;2.80;;;;;;;18.52;43.28;101198.09;5050367;28;20057;-39
2022/04/12 01:45:21;;;;;;;4.38;2.35;;;;;;;18.52;43.50;101191.91;5045782;28;20055;-39
2022/04/12 01:47:47;;;;;;;4.15;2.67;;;;;;;18.51;43.07;101193.75;5047637;28;20049;-39
2022/04/12 01:50:14;;;;;;;6.13;2.50;;;;;;;18.50;43.46;101190.22;5046825;28;20041;-39
2022/04/12 01:52:40;;;;;;;4.00;2.50;;;;;;;18.50;43.22;101194.75;5045422;28;20045;-39
2022/04/12 01:55:08;;;;;;;3.78;2.60;;;;;;;18.49;43.23;101198.41;5045820;28;20044;-39
2022/04/12 01:57:34;;;;;;;4.22;2.40;;;;;;;18.49;43.47;101193.91;5047986;28;20040;-39
2022/04/12 02:00:01;;;;;;;5.35;2.80;;;;;;;18.48;43.46;101192.19;5046771;28;20036;-40
2022/04/12 02:02:27;;;;;;;5.28;3.00;;;;;;;18.47;43.40;101192.34;5046481;28;20120;-40
2022/04/12 02:04:54;;;;;;;4.72;2.40;;;;;;;18.46;43.35;101188.81;5046016;28;20043;-39
2022/04/12 02:07:21;;;;;;;5.40;2.40;;;;;;;18.45;43.13;101192.50;5046535;28;20037;-39
2022/04/12 02:09:47;;;;;;;4.32;2.28;;;;;;;18.45;43.28;101187.16;5046108;28;20045;-39
2022/04/12 02:12:14;;;;;;;7.25;2.45;;;;;;;18.45;43.19;101187.16;5046081;28;20063;-39
2022/04/12 02:14:40;;;;;;;3.92;2.55;;;;;;;18.44;43.15;101188.13;5046029;28;20128;-40
2022/04/12 02:17:07;;;;;;;2.67;2.05;;;;;;;18.43;43.13;101182.91;5047233;28;20059;-40
2022/04/12 02:19:33;;;;;;;2.97;2.17;;;;;;;18.42;43.28;101184.75;5046604;28;20060;-39
2022/04/12 02:22:00;;;;;;;4.72;2.38;;;;;;;18.41;43.20;101182.19;5045754;28;20051;-39
2022/04/12 02:24:26;;;;;;;3.80;2.17;;;;;;;18.40;43.45;101177.81;5047042;28;20132;-39
2022/04/12 02:26:53;;;;;;;6.28;2.60;;;;;;;18.39;43.10;101176.97;5047381;28;20047;-39
2022/04/12 02:29:19;;;;;;;4.63;2.55;;;;;;;18.38;43.52;101183.34;5047658;28;20045;-39
2022/04/12 02:31:46;;;;;;;4.50;2.30;;;;;;;18.38;43.35;101179.81;5029140;28;20535;-39
2022/04/12 02:34:12;;;;;;;3.50;2.47;;;;;;;18.37;43.30;101175.44;5045075;28;20041;-39
2022/04/12 02:36:39;;;;;;;5.50;2.80;;;;;;;18.36;43.11;101169.22;5046712;28;20488;-40
2022/04/12 02:39:05;;;;;;;4.25;2.45;;;;;;;18.36;43.45;101165.69;5045280;28;20051;-40
2022/04/12 02:41:32;;;;;;;3.42;2.17;;;;;;;18.36;42.84;101169.22;5046089;28;20491;-40
2022/04/12 02:43:58;;;;;;;3.10;2.20;;;;;;;18.34;42.90;101162.34;5046448;28;20049;-39
2022/04/12 02:46:25;;;;;;;3.85;2.28;;;;;;;18.32;42.93;101165.16;5047746;28;20135;-39
2022/04/12 02:48:51;;;;;;;4.25;2.47;;;;;;;18.31;43.28;101160.78;5045292;28;20063;-40
2022/04/12 02:51:18;;;;;;;4.53;2.42;;;;;;;18.31;43.07;101165.31;5047337;28;20051;-40
2022/04/12 02:53:44;;;;;;;4.30;2.30;;;;;;;18.30;42.98;101147.53;5045365;28;20052;-39
2022/04/12 02:56:12;;;;;;;3.28;2.03;;;;;;;18.28;43.01;101144.97;5043248;28;20041;-39
2022/04/12 02:58:39;;;;;;;3.58;1.92;;;;;;;18.29;42.83;101149.38;5045762;28;20048;-39
2022/04/12 03:01:05;;;;;;;2.80;1.83;;;;;;;18.26;43.13;101144.28;5049307;28;20066;-39
2022/04/12 03:03:33;;;;;;;3.00;1.90;;;;;;;18.27;42.87;101140.59;5046493;28;20122;-40
2022/04/12 03:05:59;;;;;;;4.60;2.58;;;;;;;18.25;42.87;101147.94;5045912;28;20048;-39
2022/04/12 03:08:26;;;;;;;4.05;2.70;;;;;;;18.25;42.61;101137.19;5047357;28;20068;-39
2022/04/12 03:10:52;;;;;;;4.00;2.17;;;;;;;18.23;42.56;101128.47;5046649;28;20049;-39
2022/04/12 03:13:19;;;;;;;3.50;2.20;;;;;;;18.22;42.83;101121.44;5044861;28;20162;-39
2022/04/12 03:15:45;;;;;;;4.07;2.20;;;;;;;18.21;42.73;101125.06;5045500;28;20049;-40
2022/04/12 03:18:12;;;;;;;3.47;2.30;;;;;;;18.20;42.57;101128.75;5044530;28;20063;-40
2022/04/12 03:20:38;;;;;;;3.20;2.28;;;;;;;18.20;42.85;101128.75;5046693;28;20056;-40
2022/04/12 03:23:05;;;;;;;3.22;2.28;;;;;;;18.19;42.90;101122.56;5048397;28;20045;-40
2022/04/12 03:25:32;;;;;;;3.58;2.20;;;;;;;18.18;42.70;101131.59;5047336;28;20064;-40
2022/04/12 03:27:58;;;;;;;3.70;2.15;;;;;;;18.17;42.80;101129.91;5047024;28;20044;-40
2022/04/12 03:30:25;;;;;;;3.17;2.00;;;;;;;18.17;42.75;101126.38;5046128;28;20409;-40
2022/04/12 03:32:52;;;;;;;2.85;1.88;;;;;;;18.17;42.84;101123.69;5043306;28;20041;-40
2022/04/12 03:35:19;;;;;;;3.70;2.22;;;;;;;18.18;42.78;101126.25;5041813;28;20055;-39
2022/04/12 03:37:45;;;;;;;3.22;2.20;;;;;;;18.15;42.66;101115.78;5044597;28;20044;-40
2022/04/12 03:40:12;;;;;;;3.35;2.08;;;;;;;18.15;43.05;101113.13;5046999;28;20051;-40
2022/04/12 03:42:39;;;;;;;3.08;2.10;;;;;;;18.13;43.01;101115.13;5046152;28;20084;-40
2022/04/12 03:45:06;;;;;;;3.25;2.00;;;;;;;18.13;42.86;101106.19;5045432;28;20128;-41
2022/04/12 03:47:32;;;;;;;5.28;2.17;;;;;;;18.12;42.90;101113.41;5045068;28;20352;-40
2022/04/12 03:49:59;;;;;;;3.35;2.00;;;;;;;18.12;42.76;101110.72;5044625;28;20055;-40
2022/04/12 03:52:25;;;;;;;3.78;2.13;;;;;;;18.11;43.19;101110.88;5045181;28;20136;-40
2022/04/12 03:54:52;;;;;;;2.88;1.65;;;;;;;18.10;43.32;101107.34;5044811;28;20052;-38
2022/04/12 03:57:18;;;;;;;4.00;2.03;;;;;;;18.09;43.20;101112.84;5045590;28;20045;-39
2022/04/12 03:59:45;;;;;;;3.50;1.90;;;;;;;18.08;43.35;101109.31;5043966;28;20063;-39
2022/04/12 04:02:11;;;;;;;4.32;2.00;;;;;;;18.08;43.20;101109.31;5045985;28;20063;-40
2022/04/12 04:04:38;;;;;;;3.40;1.70;;;;;;;18.08;43.39;101106.63;5042159;28;20388;-40
2022/04/12 04:07:05;;;;;;;4.40;2.10;;;;;;;18.08;43.49;101109.31;5042764;28;20041;-40
2022/04/12 04:09:31;;;;;;;5.03;2.25;;;;;;;18.08;43.60;101113.84;5043474;28;20037;-39
2022/04/12 04:11:58;;;;;;;5.18;2.30;;;;;;;18.09;43.65;101112.84;5046533;28;20136;-40
2022/04/12 04:14:26;;;;;;;4.38;2.42;;;;;;;18.08;43.19;101103.13;5044736;28;20070;-40
2022/04/12 04:16:53;;;;;;;4.60;2.10;;;;;;;18.07;43.37;101107.66;5043773;28;20080;-40
2022/04/12 04:19:19;;;;;;;3.78;2.00;;;;;;;18.07;43.53;101104.13;5045474;28;20056;-40
2022/04/12 04:21:46;;;;;;;4.75;2.10;;;;;;;18.08;42.93;101116.53;5048654;28;20432;-40
2022/04/12 04:24:13;;;;;;;6.78;2.60;;;;;;;18.08;43.15;101108.47;5051937;28;20047;-40
2022/04/12 04:26:40;;;;;;;5.00;2.25;;;;;;;18.07;43.00;101115.69;5052898;28;20087;-40
2022/04/12 04:29:06;;;;;;;3.72;2.10;;;;;;;18.08;43.02;101127.25;5046851;28;20132;-40
2022/04/12 04:31:33;;;;;;;4.82;2.30;;;;;;;18.07;43.02;101122.91;5056156;28;20037;-40
2022/04/12 04:34:00;;;;;;;5.43;2.90;;;;;;;18.06;43.19;101131.94;5056747;28;20047;-40
2022/04/12 04:36:26;;;;;;;4.18;2.55;;;;;;;18.06;43.34;101142.66;5056427;28;20316;-40
2022/04/12 04:38:53;;;;;;;4.07;2.22;;;;;;;18.05;43.04;101138.28;5056182;28;20059;-40
2022/04/12 04:41:19;;;;;;;5.57;3.30;;;;;;;18.06;43.23;101132.78;5059362;28;20135;-40
2022/04/12 04:43:46;;;;;;;5.70;3.33;;;;;;;18.05;43.04;101130.22;5054815;28;20541;-40
2022/04/12 04:46:13;;;;;;;4.32;2.50;;;;;;;18.05;43.20;101130.22;5055859;28;20139;-40
2022/04/12 04:48:41;;;;;;;3.25;2.42;;;;;;;18.04;43.17;101129.38;5055791;28;20361;-40
2022/04/12 04:51:09;;;;;;;6.60;2.65;;;;;;;18.04;43.12;101140.13;5056472;28;20131;-40
2022/04/12 04:53:37;;;;;;;5.63;2.90;;;;;;;18.04;42.56;101150.00;5059200;28;20095;-40
2022/04/12 04:56:05;;;;;;;4.57;2.70;;;;;;;18.03;42.79;101138.44;5056846;28;20306;-40
2022/04/12 04:58:32;;;;;;;5.30;3.33;;;;;;;18.03;42.81;101138.44;5055948;28;20136;-40
2022/04/12 05:00:58;;;;;;;5.70;2.90;;;;;;;18.02;43.03;101128.69;5055482;28;20155;-40
2022/04/12 05:03:27;;;;;;;4.75;3.00;;;;;;;18.00;42.71;101128.81;5055897;28;20128;-40
2022/04/12 05:05:53;;;;;;;8.65;3.22;;;;;;;18.01;42.73;101132.38;5056240;28;20095;-40
2022/04/12 05:08:20;;;;;;;6.55;3.70;;;;;;;18.00;42.55;101128.81;5056020;28;20141;-39
2022/04/12 05:10:46;;;;;;;4.95;2.90;;;;;;;17.99;43.00;101140.56;5056425;28;20395;-39
2022/04/12 05:13:13;;;;;;;5.03;3.08;;;;;;;17.98;42.88;101128.16;5056076;28;20341;-39
2022/04/12 05:15:40;;;;;;;5.18;2.95;;;;;;;17.98;42.61;101125.47;5054514;28;20047;-44
2022/04/12 05:18:06;;;;;;;6.15;3.60;;;;;;;17.97;42.90;101110.38;5056723;28;20041;-39
2022/04/12 05:20:33;;;;;;;6.05;3.67;;;;;;;17.99;43.02;101110.22;5052813;28;20059;-39
2022/04/12 05:22:59;;;;;;;8.10;3.25;;;;;;;17.98;42.79;101108.53;5050909;28;20044;-40
2022/04/12 05:25:26;;;;;;;6.60;3.78;;;;;;;17.97;42.43;101114.91;5050643;28;20065;-40
2022/04/12 05:27:52;;;;;;;6.55;3.22;;;;;;;17.98;42.90;101108.53;5054777;28;20116;-40
2022/04/12 05:30:19;;;;;;;5.50;3.58;;;;;;;17.96;42.87;101099.78;5051265;28;20128;-40
2022/04/12 05:32:46;;;;;;;6.15;3.67;;;;;;;17.94;42.90;101097.25;5055672;28;20079;-40
2022/04/12 05:35:13;;;;;;;6.93;4.00;;;;;;;17.95;43.15;101093.56;5055335;28;20428;-40
2022/04/12 05:37:44;;;;;;;15.13;5.95;;;;;;;17.94;43.22;101102.63;5052956;28;20041;-40
2022/04/12 05:40:12;;;;;;;19.55;8.48;;;;;;;17.97;43.95;101106.84;5051060;28;20040;-40
2022/04/12 05:42:39;;;;;;;20.70;8.55;;;;;;;17.97;44.01;101107.69;5050262;28;20051;-40
2022/04/12 05:45:10;;;;;;;15.90;7.05;;;;;;;17.97;43.59;101106.84;5043187;28;20087;-40
2022/04/12 05:47:42;;;;;;;14.50;6.25;;;;;;;17.98;43.27;101104.00;5053216;28;20159;-40
2022/04/12 05:50:10;;;;;;;20.30;6.93;;;;;;;17.99;43.32;101115.59;5051044;28;20388;-40
2022/04/12 05:52:38;;;;;;;17.58;7.03;;;;;;;18.00;43.15;101122.63;5054021;28;20045;-40
2022/04/12 05:55:07;;;;;;;21.23;7.38;;;;;;;17.99;43.25;101131.66;5051434;28;20057;-40
2022/04/12 05:57:52;;;;;;;19.98;6.47;;;;;;;17.98;43.09;101130.00;5052724;28;20033;-40
2022/04/12 06:00:20;;;;;;;17.95;6.95;;;;;;;17.99;43.12;101124.47;5050461;28;20072;-40
2022/04/12 06:02:49;;;;;;;16.05;6.28;;;;;;;18.00;43.26;101138.72;5050510;28;20127;-40
2022/04/12 06:05:18;;;;;;;12.20;5.57;;;;;;;17.99;43.20;101140.56;5051824;28;20053;-40
2022/04/12 06:07:45;;;;;;;14.63;5.97;;;;;;;18.01;42.97;101145.78;5050236;28;20159;-40
2022/04/12 06:10:15;;;;;;;16.17;6.53;;;;;;;18.01;43.50;101148.47;5050849;28;20091;-40
2022/04/12 06:12:41;;;;;;;17.88;7.43;;;;;;;18.03;43.20;101148.31;5050176;28;20135;-40
2022/04/12 06:15:09;;;;;;;13.65;5.72;;;;;;;18.02;43.17;101144.78;5049249;28;20377;-39
2022/04/12 06:17:37;;;;;;;15.95;6.43;;;;;;;18.03;42.97;101154.53;5050058;28;20245;-40
2022/04/12 06:20:09;;;;;;;15.48;6.43;;;;;;;18.03;42.91;101138.44;5049656;28;20066;-40
2022/04/12 06:22:36;;;;;;;15.45;5.75;;;;;;;18.03;43.01;101132.22;5051139;28;20043;-39
2022/04/12 06:25:03;;;;;;;13.48;5.45;;;;;;;18.05;42.79;101114.13;5051999;28;20132;-39
2022/04/12 06:27:38;;;;;;;10.73;5.35;;;;;;;18.06;42.85;101115.84;5051694;28;20051;-39
2022/04/12 06:30:14;;;;;;;12.68;5.32;;;;;;;18.07;42.44;101114.84;5048219;28;20139;-39
2022/04/12 06:32:42;;;;;;;12.82;5.70;;;;;;;18.08;42.58;101119.22;5052113;28;20333;-39
2022/04/12 06:35:10;;;;;;;13.98;5.78;;;;;;;18.09;42.68;101120.91;5053735;28;20532;-39
2022/04/12 06:37:37;;;;;;;10.95;5.07;;;;;;;18.11;42.77;101127.81;5051251;28;20043;-39
2022/04/12 06:40:04;;;;;;;13.20;5.50;;;;;;;18.12;42.56;101125.97;5050830;28;20040;-39
2022/04/12 06:42:31;;;;;;;11.65;5.05;;;;;;;18.14;42.62;101124.00;5052345;28;20045;-39
2022/04/12 06:45:04;;;;;;;12.60;5.45;;;;;;;18.16;42.52;101112.09;5050314;28;20060;-39
2022/04/12 06:47:32;;;;;;;14.10;5.18;;;;;;;18.19;42.23;101113.66;5051541;28;20095;-40
2022/04/12 06:49:59;;;;;;;11.35;5.50;;;;;;;18.21;42.19;101106.28;5050076;28;20140;-39
2022/04/12 06:52:25;;;;;;;13.50;5.35;;;;;;;18.22;41.76;101098.13;5052551;28;20040;-39
2022/04/12 06:54:52;;;;;;;9.52;4.57;;;;;;;18.25;42.45;101102.31;5052113;28;20447;-39
2022/04/12 06:57:18;;;;;;;10.68;4.65;;;;;;;18.28;42.57;101093.97;5052137;28;20392;-39
2022/04/12 06:59:45;;;;;;;11.30;4.88;;;;;;;18.31;42.21;101107.13;5048161;28;20053;-39
2022/04/12 07:02:12;;;;;;;10.90;4.88;;;;;;;18.32;42.26;101110.63;5048442;28;20344;-39
2022/04/12 07:04:39;;;;;;;11.07;5.07;;;;;;;18.34;41.89;101114.88;5049044;28;20041;-38
2022/04/12 07:07:06;;;;;;;9.88;5.03;;;;;;;18.34;41.96;101114.88;5050248;28;20037;-38
2022/04/12 07:09:32;;;;;;;11.48;5.47;;;;;;;18.36;42.12;101118.22;5049867;28;20182;-38
2022/04/12 07:12:00;;;;;;;9.40;4.75;;;;;;;18.38;41.95;101112.72;5049725;28;20216;-38
2022/04/12 07:14:29;;;;;;;11.40;4.50;;;;;;;18.38;41.63;101105.53;5050222;28;20424;-39
2022/04/12 07:16:56;;;;;;;9.70;4.93;;;;;;;18.40;41.60;101111.56;5046975;28;20045;-38
2022/04/12 07:19:24;;;;;;;9.10;4.75;;;;;;;18.40;41.95;101116.09;5047070;28;20864;-39
2022/04/12 07:21:51;;;;;;;9.80;4.40;;;;;;;18.41;41.69;101113.28;5052148;28;20048;-39
2022/04/12 07:24:18;;;;;;;9.48;4.40;;;;;;;18.43;41.93;101118.50;5050807;28;20044;-39
2022/04/12 07:26:44;;;;;;;8.02;4.38;;;;;;;18.44;41.83;101112.13;5048715;28;20057;-39
2022/04/12 07:29:11;;;;;;;7.80;4.10;;;;;;;18.45;41.58;101111.13;5049837;28;20133;-39
2022/04/12 07:31:38;;;;;;;11.70;4.72;;;;;;;18.47;41.49;101114.50;5048216;28;20055;-39
2022/04/12 07:34:04;;;;;;;9.30;4.65;;;;;;;18.46;41.76;101119.03;5049907;28;20045;-39
2022/04/12 07:36:31;;;;;;;8.43;4.25;;;;;;;18.48;41.26;101113.50;5051905;28;20041;-39
2022/04/12 07:38:58;;;;;;;8.45;4.47;;;;;;;18.49;41.94;101107.13;5050034;28;20055;-39
2022/04/12 07:41:24;;;;;;;8.18;4.22;;;;;;;18.50;41.89;101108.84;5050032;28;20119;-39
2022/04/12 07:43:52;;;;;;;7.85;4.43;;;;;;;18.52;41.63;101111.38;5049059;28;20059;-39
2022/04/12 07:46:19;;;;;;;7.93;4.30;;;;;;;18.53;41.43;101105.00;5048149;28;20065;-39
2022/04/12 07:48:48;;;;;;;8.02;4.45;;;;;;;18.53;41.82;101105.84;5049616;28;20061;-39
2022/04/12 07:51:15;;;;;;;9.15;3.70;;;;;;;18.55;41.50;101103.03;5049670;28;20041;-39
2022/04/12 07:53:42;;;;;;;7.70;4.13;;;;;;;18.57;41.42;101099.19;5053358;28;20605;-39
2022/04/12 07:56:08;;;;;;;6.25;3.65;;;;;;;18.58;41.84;101108.94;5048687;28;20079;-39
2022/04/12 07:58:35;;;;;;;7.07;4.13;;;;;;;18.59;41.78;101110.63;5049421;28;20045;-39
2022/04/12 08:01:02;;;;;;;6.78;3.83;;;;;;;18.59;41.31;101107.94;5048251;28;20140;-39
2022/04/12 08:03:29;;;;;;;8.45;3.90;;;;;;;18.61;41.58;101102.41;5050520;28;20519;-39
2022/04/12 08:05:56;;;;;;;5.47;3.40;;;;;;;18.63;41.44;101092.38;5050530;28;20051;-39
2022/04/12 08:08:22;;;;;;;6.03;3.55;;;;;;;18.65;41.36;101090.38;5049397;28;20355;-39
2022/04/12 08:10:49;;;;;;;9.13;4.13;;;;;;;18.66;41.99;101100.97;5053226;28;20049;-39
2022/04/12 08:13:15;;;;;;;7.70;3.60;;;;;;;18.68;42.13;101104.34;5048492;28;20412;-39
2022/04/12 08:15:42;;;;;;;7.82;3.83;;;;;;;18.69;42.29;101108.75;5049728;28;20384;-39
2022/04/12 08:18:09;;;;;;;5.68;3.58;;;;;;;18.71;42.19;101111.28;5046852;28;20124;-39
2022/04/12 08:20:35;;;;;;;5.35;2.85;;;;;;;18.73;42.42;101102.09;5047999;28;20044;-39
2022/04/12 08:23:02;;;;;;;5.78;3.53;;;;;;;18.76;43.48;101097.41;5048469;28;20099;-39
2022/04/12 08:25:29;;;;;;;6.93;3.80;;;;;;;18.76;42.94;101094.72;5048835;28;20285;-39
2022/04/12 08:27:56;;;;;;;8.55;3.90;;;;;;;18.78;43.33;101096.28;5047283;28;20041;-39
2022/04/12 08:30:23;;;;;;;5.90;3.45;;;;;;;18.80;43.00;101101.47;5046870;28;20056;-39
2022/04/12 08:32:50;;;;;;;5.80;3.15;;;;;;;18.81;43.65;101103.16;5049464;28;20049;-39
2022/04/12 08:35:16;;;;;;;7.28;3.40;;;;;;;18.82;42.97;101099.50;5047515;28;20643;-39
2022/04/12 08:37:44;;;;;;;7.00;3.38;;;;;;;18.83;43.43;101098.50;5052010;28;20032;-39
2022/04/12 08:40:11;;;;;;;5.55;3.00;;;;;;;18.83;43.27;101090.44;5048080;28;20120;-39
2022/04/12 08:42:39;;;;;;;6.13;3.05;;;;;;;18.86;43.32;101103.56;5049133;28;22394;-39
2022/04/12 08:45:06;;;;;;;6.25;3.17;;;;;;;18.88;43.47;101104.25;5049367;28;20540;-39
2022/04/12 08:47:36;;;;;;;8.70;3.50;;;;;;;18.89;43.34;101108.59;5053059;28;20139;-39
2022/04/12 08:50:05;;;;;;;6.13;3.33;;;;;;;18.90;43.43;101103.09;5047777;28;20337;-39
2022/04/12 08:52:32;;;;;;;7.93;3.83;;;;;;;18.91;43.33;101099.41;5048836;28;20092;-39
2022/04/12 08:54:59;;;;;;;5.40;2.88;;;;;;;18.94;43.40;101109.84;5049463;28;20131;-39
2022/04/12 08:57:25;;;;;;;5.82;3.28;;;;;;;18.95;43.54;101105.31;5047126;28;20045;-39
2022/04/12 08:59:52;;;;;;;6.45;3.15;;;;;;;18.96;43.50;101102.47;5047359;28;20316;-39
2022/04/12 09:02:19;;;;;;;6.10;3.38;;;;;;;18.98;43.25;101094.28;5050462;28;20072;-39
2022/04/12 09:04:46;;;;;;;5.13;3.22;;;;;;;19.01;43.45;101095.78;5048253;28;20072;-39
2022/04/12 09:07:13;;;;;;;5.32;2.85;;;;;;;19.02;43.41;101095.66;5050243;28;20356;-39
2022/04/12 09:09:42;;;;;;;6.10;3.10;;;;;;;19.05;43.27;101097.19;5040318;28;20048;-39
2022/04/12 09:12:11;;;;;;;4.30;2.50;;;;;;;19.06;43.57;101097.03;5045558;28;20079;-39
2022/04/12 09:14:42;;;;;;;4.65;2.65;;;;;;;19.08;43.74;101100.41;5045863;28;20065;-39
2022/04/12 09:17:13;;;;;;;4.80;2.47;;;;;;;19.12;43.78;101099.09;5050834;28;20381;-39
2022/04/12 09:19:48;;;;;;;4.55;2.30;;;;;;;19.13;43.62;101086.50;5052245;28;20083;-39
2022/04/12 09:22:23;;;;;;;4.55;2.80;;;;;;;19.16;43.66;101087.03;5052343;28;20131;-39
2022/04/12 09:24:52;;;;;;;5.30;3.17;;;;;;;19.17;43.60;101077.97;5051699;28;20137;-40
2022/04/12 09:27:23;;;;;;;6.35;2.70;;;;;;;19.21;43.40;101079.34;5049626;28;20048;-39
2022/04/12 09:30:01;;;;;;;3.40;2.42;;;;;;;19.23;43.85;101076.53;5048817;28;20180;-40
2022/04/12 09:32:34;;;;;;;5.65;2.90;;;;;;;19.28;43.06;101076.03;5051888;28;20053;-40
2022/04/12 09:35:01;;;;;;;5.00;2.72;;;;;;;19.30;43.56;101066.00;5054413;28;20167;-40
2022/04/12 09:37:35;;;;;;;3.65;2.50;;;;;;;19.33;43.31;101058.44;5053149;28;20621;-40
2022/04/12 09:40:02;;;;;;;5.60;2.85;;;;;;;19.37;43.42;101057.13;5050631;28;20043;-40
2022/04/12 09:42:38;;;;;;;4.50;2.40;;;;;;;19.41;43.02;101063.03;5050123;28;20111;-40
2022/04/12 09:45:08;;;;;;;5.35;2.50;;;;;;;19.44;42.98;101065.41;5049737;28;20445;-40
2022/04/12 09:47:35;;;;;;;4.28;2.08;;;;;;;19.48;43.04;101056.03;5051640;28;20069;-40
2022/04/12 09:50:23;;;;;;;5.30;2.83;;;;;;;19.52;43.06;101054.72;5053555;28;20066;-40
2022/04/12 09:52:53;;;;;;;4.47;2.53;;;;;;;19.55;42.72;101045.50;5052556;28;20076;-40
2022/04/12 09:55:36;;;;;;;4.72;2.80;;;;;;;19.58;42.90;101051.41;5052820;28;20069;-40
2022/04/12 09:58:12;;;;;;;3.65;2.20;;;;;;;19.63;43.15;101048.28;5052845;28;20036;-40
2022/04/12 10:00:41;;;;;;;3.67;2.17;;;;;;;19.66;42.96;101054.19;5050628;28;20092;-40
2022/04/12 10:03:11;;;;;;;4.90;2.22;;;;;;;19.68;43.18;101045.94;5052069;28;20052;-40
2022/04/12 10:05:38;;;;;;;3.92;2.30;;;;;;;19.71;43.01;101042.94;5050268;28;20123;-40
2022/04/12 10:08:06;;;;;;;5.13;2.30;;;;;;;19.75;42.88;101040.78;5054414;28;20119;-40
2022/04/12 10:10:33;;;;;;;4.13;2.50;;;;;;;19.77;43.08;101034.22;5050562;28;20128;-40
2022/04/12 10:12:59;;;;;;;4.88;2.40;;;;;;;19.80;42.90;101033.06;5052671;28;20393;-40
2022/04/12 10:15:28;;;;;;;4.70;2.35;;;;;;;19.82;43.39;101037.28;5050806;28;20057;-40
2022/04/12 10:17:55;;;;;;;3.40;1.92;;;;;;;19.86;43.07;101032.41;5051519;28;20384;-40
2022/04/12 10:20:22;;;;;;;5.25;2.47;;;;;;;19.86;43.20;101035.09;5051799;28;20131;-40
2022/04/12 10:22:50;;;;;;;3.72;2.78;;;;;;;19.89;42.59;101037.47;5051908;28;20144;-40
2022/04/12 10:25:22;;;;;;;3.95;2.20;;;;;;;19.91;42.56;101030.94;5053171;28;20045;-40
2022/04/12 10:27:53;;;;;;;4.22;1.90;;;;;;;19.94;42.65;101029.78;5050858;28;20037;-40
2022/04/12 10:30:21;;;;;;;2.88;2.00;;;;;;;19.96;42.39;101017.00;5048757;28;20037;-40
2022/04/12 10:33:19;;;;;;;3.17;2.50;;;;;;;19.96;42.67;101007.06;5050504;28;20409;-40
2022/04/12 10:35:46;;;;;;;3.47;2.33;;;;;;;20.01;43.11;101009.25;5028100;28;20498;-40
2022/04/12 10:38:14;;;;;;;3.58;2.25;;;;;;;20.03;42.69;100998.34;5054100;28;20037;-40
2022/04/12 10:41:12;;;;;;;5.57;2.70;;;;;;;20.05;43.11;100999.88;5048059;28;20053;-40
2022/04/12 10:43:40;;;;;;;3.17;1.90;;;;;;;20.07;42.92;101000.56;5049904;28;20127;-40
2022/04/12 10:46:09;;;;;;;4.25;2.17;;;;;;;20.09;43.72;101001.22;5051427;28;20047;-40
2022/04/12 10:48:36;;;;;;;5.80;2.40;;;;;;;20.10;43.04;100988.59;5049970;28;20159;-40
2022/04/12 10:51:05;;;;;;;3.53;2.10;;;;;;;20.11;43.13;100984.94;5051668;28;20435;-40
2022/04/12 10:53:37;;;;;;;3.83;2.22;;;;;;;20.10;42.99;100991.28;5048655;28;20318;-40
2022/04/12 10:56:15;;;;;;;4.53;2.13;;;;;;;20.10;42.89;100985.91;5048033;28;20184;-41
2022/04/12 10:58:43;;;;;;;3.63;2.22;;;;;;;20.10;42.60;100984.09;5046961;28;20048;-40
2022/04/12 11:01:28;;;;;;;2.65;1.70;;;;;;;20.08;43.57;100986.09;5047916;28;20439;-40
2022/04/12 11:03:56;;;;;;;3.38;2.00;;;;;;;20.09;43.32;100989.63;5049254;28;20096;-40
2022/04/12 11:06:24;;;;;;;2.72;1.98;;;;;;;20.08;42.93;100980.72;5048914;28;20045;-40
2022/04/12 11:09:00;;;;;;;4.28;2.20;;;;;;;20.07;43.02;100976.34;5049984;28;20044;-41
2022/04/12 11:11:33;;;;;;;5.78;2.10;;;;;;;20.08;43.47;100979.88;5047982;28;20328;-38
2022/04/12 11:14:21;;;;;;;5.93;2.10;;;;;;;20.07;42.79;100981.72;5049827;28;20063;-41
2022/04/12 11:16:53;;;;;;;4.47;1.92;;;;;;;20.08;42.69;100977.19;5049435;28;20065;-41
2022/04/12 11:19:21;;;;;;;4.57;2.20;;;;;;;20.08;42.87;100974.50;5043938;28;20040;-40
2022/04/12 11:21:56;;;;;;;5.57;2.50;;;;;;;20.07;42.66;100987.09;5048809;28;20053;-41
2022/04/12 11:24:24;;;;;;;3.42;1.90;;;;;;;20.07;43.25;100989.78;5049573;28;20049;-41
2022/04/12 11:27:04;;;;;;;4.05;2.35;;;;;;;20.08;43.26;100986.09;5049247;28;20045;-40
2022/04/12 11:29:31;;;;;;;3.05;2.40;;;;;;;20.10;43.20;100991.28;5049730;28;20041;-38
2022/04/12 11:31:58;;;;;;;3.05;1.90;;;;;;;20.09;43.24;100993.16;5049764;28;20044;-39